sensor_id;sensor_type;location;lat;lon;timestamp;temperature;humidity
24664;DHT22;12791;50.992;13.788;2023-09-19T00:00:16;18.00;99.90
24664;DHT22;12791;50.992;13.788;2023-09-19T00:02:45;18.00;99.90
24664;DHT22;12791;50.992;13.788;2023-09-19T00:05:12;17.90;99.90
24664;DHT22;12791;50.992;13.788;2023-09-19T00:07:39;17.90;99.90
24664;DHT22;12791;50.992;13.788;2023-09-19T00:10:07;17.90;99.90
24664;DHT22;12791;50.992;13.788;2023-09-19T00:12:35;17.90;99.90
24664;DHT22;12791;50.992;13.788;2023-09-19T00:15:04;17.80;99.90
24664;DHT22;12791;50.992;13.788;2023-09-19T00:17:32;17.80;99.90
24664;DHT22;12791;50.992;13.788;2023-09-19T00:20:00;17.80;99.90
24664;DHT22;12791;50.992;13.788;2023-09-19T00:22:40;17.70;99.90
24664;DHT22;12791;50.992;13.788;2023-09-19T00:25:07;17.70;99.90
24664;DHT22;12791;50.992;13.788;2023-09-19T00:27:35;17.70;99.90
24664;DHT22;12791;50.992;13.788;2023-09-19T00:30:08;17.70;99.90
24664;DHT22;12791;50.992;13.788;2023-09-19T00:32:41;17.70;99.90
24664;DHT22;12791;50.992;13.788;2023-09-19T00:35:08;17.70;99.90
24664;DHT22;12791;50.992;13.788;2023-09-19T00:37:37;17.70;99.90
24664;DHT22;12791;50.992;13.788;2023-09-19T00:40:06;17.70;99.90
24664;DHT22;12791;50.992;13.788;2023-09-19T00:42:38;17.70;99.90
24664;DHT22;12791;50.992;13.788;2023-09-19T00:45:08;17.60;99.90
24664;DHT22;12791;50.992;13.788;2023-09-19T00:47:37;17.60;99.90
24664;DHT22;12791;50.992;13.788;2023-09-19T00:50:05;17.60;99.90
24664;DHT22;12791;50.992;13.788;2023-09-19T00:52:33;17.60;99.90
24664;DHT22;12791;50.992;13.788;2023-09-19T00:55:03;17.70;99.90
24664;DHT22;12791;50.992;13.788;2023-09-19T00:57:30;17.70;99.90
24664;DHT22;12791;50.992;13.788;2023-09-19T01:00:00;17.70;99.90
24664;DHT22;12791;50.992;13.788;2023-09-19T01:02:32;17.70;99.90
24664;DHT22;12791;50.992;13.788;2023-09-19T01:04:59;17.70;99.90
24664;DHT22;12791;50.992;13.788;2023-09-19T01:07:27;17.70;99.90
24664;DHT22;12791;50.992;13.788;2023-09-19T01:09:55;17.70;99.90
24664;DHT22;12791;50.992;13.788;2023-09-19T01:12:33;17.70;99.90
24664;DHT22;12791;50.992;13.788;2023-09-19T01:15:06;17.70;99.90
24664;DHT22;12791;50.992;13.788;2023-09-19T01:17:45;17.70;99.90
24664;DHT22;12791;50.992;13.788;2023-09-19T01:20:22;17.70;99.90
24664;DHT22;12791;50.992;13.788;2023-09-19T01:23:00;17.70;99.90
24664;DHT22;12791;50.992;13.788;2023-09-19T01:28:30;17.60;99.90
24664;DHT22;12791;50.992;13.788;2023-09-19T01:31:04;17.60;99.90
24664;DHT22;12791;50.992;13.788;2023-09-19T01:33:56;17.50;99.90
24664;DHT22;12791;50.992;13.788;2023-09-19T01:36:25;17.50;99.90
24664;DHT22;12791;50.992;13.788;2023-09-19T01:38:53;17.50;99.90
24664;DHT22;12791;50.992;13.788;2023-09-19T01:41:26;17.50;99.90
24664;DHT22;12791;50.992;13.788;2023-09-19T01:43:55;17.50;99.90
24664;DHT22;12791;50.992;13.788;2023-09-19T01:46:30;17.50;99.90
24664;DHT22;12791;50.992;13.788;2023-09-19T01:49:14;17.50;99.90
24664;DHT22;12791;50.992;13.788;2023-09-19T01:51:46;17.50;99.90
24664;DHT22;12791;50.992;13.788;2023-09-19T01:54:24;17.50;99.90
24664;DHT22;12791;50.992;13.788;2023-09-19T01:56:57;17.50;99.90
24664;DHT22;12791;50.992;13.788;2023-09-19T01:59:34;17.50;99.90
24664;DHT22;12791;50.992;13.788;2023-09-19T02:02:04;17.50;99.90
24664;DHT22;12791;50.992;13.788;2023-09-19T02:04:33;17.50;99.90
24664;DHT22;12791;50.992;13.788;2023-09-19T02:07:00;17.50;99.90
24664;DHT22;12791;50.992;13.788;2023-09-19T02:09:27;17.50;99.90
24664;DHT22;12791;50.992;13.788;2023-09-19T02:11:55;17.50;99.90
24664;DHT22;12791;50.992;13.788;2023-09-19T02:14:22;17.50;99.90
24664;DHT22;12791;50.992;13.788;2023-09-19T02:16:49;17.50;99.90
24664;DHT22;12791;50.992;13.788;2023-09-19T02:19:17;17.50;99.90
24664;DHT22;12791;50.992;13.788;2023-09-19T02:21:46;17.50;99.90
24664;DHT22;12791;50.992;13.788;2023-09-19T02:24:14;17.50;99.90
24664;DHT22;12791;50.992;13.788;2023-09-19T02:26:41;17.50;99.90
24664;DHT22;12791;50.992;13.788;2023-09-19T02:29:09;17.50;99.90
24664;DHT22;12791;50.992;13.788;2023-09-19T02:31:38;17.50;99.90
24664;DHT22;12791;50.992;13.788;2023-09-19T02:34:08;17.40;99.90
24664;DHT22;12791;50.992;13.788;2023-09-19T02:36:37;17.40;99.90
24664;DHT22;12791;50.992;13.788;2023-09-19T02:39:05;17.40;99.90
24664;DHT22;12791;50.992;13.788;2023-09-19T02:41:34;17.30;99.90
24664;DHT22;12791;50.992;13.788;2023-09-19T02:44:00;17.30;99.90
24664;DHT22;12791;50.992;13.788;2023-09-19T02:46:28;17.30;99.90
24664;DHT22;12791;50.992;13.788;2023-09-19T02:48:55;17.30;99.90
24664;DHT22;12791;50.992;13.788;2023-09-19T02:51:22;17.30;99.90
24664;DHT22;12791;50.992;13.788;2023-09-19T02:53:51;17.30;99.90
24664;DHT22;12791;50.992;13.788;2023-09-19T02:56:20;17.30;99.90
24664;DHT22;12791;50.992;13.788;2023-09-19T02:58:48;17.30;99.90
24664;DHT22;12791;50.992;13.788;2023-09-19T03:01:15;17.30;99.90
24664;DHT22;12791;50.992;13.788;2023-09-19T03:03:44;17.30;99.90
24664;DHT22;12791;50.992;13.788;2023-09-19T03:06:11;17.30;99.90
24664;DHT22;12791;50.992;13.788;2023-09-19T03:08:39;17.30;99.90
24664;DHT22;12791;50.992;13.788;2023-09-19T03:11:09;17.30;99.90
24664;DHT22;12791;50.992;13.788;2023-09-19T03:13:37;17.30;99.90
24664;DHT22;12791;50.992;13.788;2023-09-19T03:16:05;17.30;99.90
24664;DHT22;12791;50.992;13.788;2023-09-19T03:18:34;17.30;99.90
24664;DHT22;12791;50.992;13.788;2023-09-19T03:21:01;17.30;99.90
24664;DHT22;12791;50.992;13.788;2023-09-19T03:23:28;17.20;99.90
24664;DHT22;12791;50.992;13.788;2023-09-19T03:25:56;17.20;99.90
24664;DHT22;12791;50.992;13.788;2023-09-19T03:28:26;17.20;99.90
24664;DHT22;12791;50.992;13.788;2023-09-19T03:31:00;17.20;99.90
24664;DHT22;12791;50.992;13.788;2023-09-19T03:33:28;17.20;99.90
24664;DHT22;12791;50.992;13.788;2023-09-19T03:35:57;17.20;99.90
24664;DHT22;12791;50.992;13.788;2023-09-19T03:38:25;17.20;99.90
24664;DHT22;12791;50.992;13.788;2023-09-19T03:40:51;17.20;99.90
24664;DHT22;12791;50.992;13.788;2023-09-19T03:43:18;17.20;99.90
24664;DHT22;12791;50.992;13.788;2023-09-19T03:45:47;17.20;99.90
24664;DHT22;12791;50.992;13.788;2023-09-19T03:48:14;17.20;99.90
24664;DHT22;12791;50.992;13.788;2023-09-19T03:50:41;17.20;99.90
24664;DHT22;12791;50.992;13.788;2023-09-19T03:53:09;17.30;99.90
24664;DHT22;12791;50.992;13.788;2023-09-19T03:55:36;17.30;99.90
24664;DHT22;12791;50.992;13.788;2023-09-19T03:58:04;17.40;99.90
24664;DHT22;12791;50.992;13.788;2023-09-19T04:00:31;17.50;99.90
24664;DHT22;12791;50.992;13.788;2023-09-19T04:03:01;17.50;99.90
24664;DHT22;12791;50.992;13.788;2023-09-19T04:05:31;17.60;99.90
24664;DHT22;12791;50.992;13.788;2023-09-19T04:07:59;17.60;99.90
24664;DHT22;12791;50.992;13.788;2023-09-19T04:10:26;17.60;99.90
24664;DHT22;12791;50.992;13.788;2023-09-19T04:12:54;17.70;99.90
24664;DHT22;12791;50.992;13.788;2023-09-19T04:15:21;17.70;99.90
24664;DHT22;12791;50.992;13.788;2023-09-19T04:17:49;17.70;99.90
24664;DHT22;12791;50.992;13.788;2023-09-19T04:20:18;17.70;99.90
24664;DHT22;12791;50.992;13.788;2023-09-19T04:22:45;17.80;99.90
24664;DHT22;12791;50.992;13.788;2023-09-19T04:25:13;17.80;99.90
24664;DHT22;12791;50.992;13.788;2023-09-19T04:27:40;17.80;99.90
24664;DHT22;12791;50.992;13.788;2023-09-19T04:30:08;17.80;99.90
24664;DHT22;12791;50.992;13.788;2023-09-19T04:32:38;17.90;99.90
24664;DHT22;12791;50.992;13.788;2023-09-19T04:35:06;17.90;99.90
24664;DHT22;12791;50.992;13.788;2023-09-19T04:37:37;17.90;99.90
24664;DHT22;12791;50.992;13.788;2023-09-19T04:40:06;17.90;99.90
24664;DHT22;12791;50.992;13.788;2023-09-19T04:42:38;17.90;99.90
24664;DHT22;12791;50.992;13.788;2023-09-19T04:45:06;17.90;99.90
24664;DHT22;12791;50.992;13.788;2023-09-19T04:47:35;17.90;99.90
24664;DHT22;12791;50.992;13.788;2023-09-19T04:50:06;17.90;99.90
24664;DHT22;12791;50.992;13.788;2023-09-19T04:52:39;17.90;99.90
24664;DHT22;12791;50.992;13.788;2023-09-19T04:55:08;17.90;99.90
24664;DHT22;12791;50.992;13.788;2023-09-19T04:57:36;17.90;99.90
24664;DHT22;12791;50.992;13.788;2023-09-19T05:00:05;17.90;99.90
24664;DHT22;12791;50.992;13.788;2023-09-19T05:02:38;17.90;99.90
24664;DHT22;12791;50.992;13.788;2023-09-19T05:05:06;18.00;99.90
24664;DHT22;12791;50.992;13.788;2023-09-19T05:07:34;18.00;99.90
24664;DHT22;12791;50.992;13.788;2023-09-19T05:10:02;17.90;99.90
24664;DHT22;12791;50.992;13.788;2023-09-19T05:12:34;17.90;99.90
24664;DHT22;12791;50.992;13.788;2023-09-19T05:15:01;18.00;99.90
24664;DHT22;12791;50.992;13.788;2023-09-19T05:17:29;18.00;99.90
24664;DHT22;12791;50.992;13.788;2023-09-19T05:19:57;18.00;99.90
24664;DHT22;12791;50.992;13.788;2023-09-19T05:22:27;18.00;99.90
24664;DHT22;12791;50.992;13.788;2023-09-19T05:24:53;18.00;99.90
24664;DHT22;12791;50.992;13.788;2023-09-19T05:27:25;18.00;99.90
24664;DHT22;12791;50.992;13.788;2023-09-19T05:29:52;18.00;99.90
24664;DHT22;12791;50.992;13.788;2023-09-19T05:32:19;18.00;99.90
24664;DHT22;12791;50.992;13.788;2023-09-19T05:34:46;18.00;99.90
24664;DHT22;12791;50.992;13.788;2023-09-19T05:37:25;18.00;99.90
24664;DHT22;12791;50.992;13.788;2023-09-19T05:39:52;18.00;99.90
24664;DHT22;12791;50.992;13.788;2023-09-19T05:42:19;18.10;99.90
24664;DHT22;12791;50.992;13.788;2023-09-19T05:44:47;18.10;99.90
24664;DHT22;12791;50.992;13.788;2023-09-19T05:47:25;18.10;99.90
24664;DHT22;12791;50.992;13.788;2023-09-19T05:49:52;18.10;99.90
24664;DHT22;12791;50.992;13.788;2023-09-19T05:52:19;18.10;99.90
24664;DHT22;12791;50.992;13.788;2023-09-19T05:54:47;18.10;99.90
24664;DHT22;12791;50.992;13.788;2023-09-19T05:57:19;18.10;99.90
24664;DHT22;12791;50.992;13.788;2023-09-19T05:59:47;18.20;99.90
24664;DHT22;12791;50.992;13.788;2023-09-19T06:02:19;18.20;99.90
24664;DHT22;12791;50.992;13.788;2023-09-19T06:04:46;18.20;99.90
24664;DHT22;12791;50.992;13.788;2023-09-19T06:07:16;18.20;99.90
24664;DHT22;12791;50.992;13.788;2023-09-19T06:09:49;18.30;99.90
24664;DHT22;12791;50.992;13.788;2023-09-19T06:12:16;18.20;99.90
24664;DHT22;12791;50.992;13.788;2023-09-19T06:14:43;18.30;99.90
24664;DHT22;12791;50.992;13.788;2023-09-19T06:17:11;18.30;99.90
24664;DHT22;12791;50.992;13.788;2023-09-19T06:19:38;18.30;99.90
24664;DHT22;12791;50.992;13.788;2023-09-19T06:22:11;18.30;99.90
24664;DHT22;12791;50.992;13.788;2023-09-19T06:24:38;18.40;99.90
24664;DHT22;12791;50.992;13.788;2023-09-19T06:27:14;18.40;99.90
24664;DHT22;12791;50.992;13.788;2023-09-19T06:29:41;18.40;99.90
24664;DHT22;12791;50.992;13.788;2023-09-19T06:32:08;18.40;99.90
24664;DHT22;12791;50.992;13.788;2023-09-19T06:34:37;18.40;99.90
24664;DHT22;12791;50.992;13.788;2023-09-19T06:37:04;18.40;99.90
24664;DHT22;12791;50.992;13.788;2023-09-19T06:39:31;18.40;99.90
24664;DHT22;12791;50.992;13.788;2023-09-19T06:42:01;18.40;99.90
24664;DHT22;12791;50.992;13.788;2023-09-19T06:44:28;18.40;99.90
24664;DHT22;12791;50.992;13.788;2023-09-19T06:46:57;18.40;99.90
24664;DHT22;12791;50.992;13.788;2023-09-19T06:49:24;18.50;99.90
24664;DHT22;12791;50.992;13.788;2023-09-19T06:51:54;18.50;99.90
24664;DHT22;12791;50.992;13.788;2023-09-19T06:54:24;18.50;99.90
24664;DHT22;12791;50.992;13.788;2023-09-19T06:56:53;18.60;99.90
24664;DHT22;12791;50.992;13.788;2023-09-19T06:59:27;18.60;99.90
24664;DHT22;12791;50.992;13.788;2023-09-19T07:01:54;18.70;99.90
24664;DHT22;12791;50.992;13.788;2023-09-19T07:04:21;18.70;99.90
24664;DHT22;12791;50.992;13.788;2023-09-19T07:06:49;18.80;99.90
24664;DHT22;12791;50.992;13.788;2023-09-19T07:09:18;18.90;99.90
24664;DHT22;12791;50.992;13.788;2023-09-19T07:11:45;18.90;99.90
24664;DHT22;12791;50.992;13.788;2023-09-19T07:14:13;19.00;99.90
24664;DHT22;12791;50.992;13.788;2023-09-19T07:16:40;19.00;99.90
24664;DHT22;12791;50.992;13.788;2023-09-19T07:19:10;19.10;99.90
24664;DHT22;12791;50.992;13.788;2023-09-19T07:21:37;19.20;99.90
24664;DHT22;12791;50.992;13.788;2023-09-19T07:24:05;19.20;99.90
24664;DHT22;12791;50.992;13.788;2023-09-19T07:26:35;19.20;99.90
24664;DHT22;12791;50.992;13.788;2023-09-19T07:29:02;19.20;99.90
24664;DHT22;12791;50.992;13.788;2023-09-19T07:31:29;19.20;99.90
24664;DHT22;12791;50.992;13.788;2023-09-19T07:33:56;19.30;99.90
24664;DHT22;12791;50.992;13.788;2023-09-19T07:36:23;19.20;99.90
24664;DHT22;12791;50.992;13.788;2023-09-19T07:38:50;19.20;99.90
24664;DHT22;12791;50.992;13.788;2023-09-19T07:41:18;19.20;99.90
24664;DHT22;12791;50.992;13.788;2023-09-19T07:43:46;19.20;99.90
24664;DHT22;12791;50.992;13.788;2023-09-19T07:46:13;19.20;99.90
24664;DHT22;12791;50.992;13.788;2023-09-19T07:48:40;19.20;99.90
24664;DHT22;12791;50.992;13.788;2023-09-19T07:51:35;19.20;99.90
24664;DHT22;12791;50.992;13.788;2023-09-19T07:54:02;19.10;99.90
24664;DHT22;12791;50.992;13.788;2023-09-19T07:56:29;19.10;99.90
24664;DHT22;12791;50.992;13.788;2023-09-19T07:58:58;19.10;99.90
24664;DHT22;12791;50.992;13.788;2023-09-19T08:01:28;19.10;99.90
24664;DHT22;12791;50.992;13.788;2023-09-19T08:03:55;19.20;99.90
24664;DHT22;12791;50.992;13.788;2023-09-19T08:06:22;19.30;99.90
24664;DHT22;12791;50.992;13.788;2023-09-19T08:08:51;19.40;99.90
24664;DHT22;12791;50.992;13.788;2023-09-19T08:11:19;19.50;99.90
24664;DHT22;12791;50.992;13.788;2023-09-19T08:13:50;19.50;99.90
24664;DHT22;12791;50.992;13.788;2023-09-19T08:16:18;19.50;99.90
24664;DHT22;12791;50.992;13.788;2023-09-19T08:18:48;19.50;99.90
24664;DHT22;12791;50.992;13.788;2023-09-19T08:21:20;19.60;99.90
24664;DHT22;12791;50.992;13.788;2023-09-19T08:23:58;19.60;99.90
24664;DHT22;12791;50.992;13.788;2023-09-19T08:26:28;19.60;99.90
24664;DHT22;12791;50.992;13.788;2023-09-19T08:28:58;19.60;99.90
24664;DHT22;12791;50.992;13.788;2023-09-19T08:31:31;19.70;99.90
24664;DHT22;12791;50.992;13.788;2023-09-19T08:33:59;19.70;99.90
24664;DHT22;12791;50.992;13.788;2023-09-19T08:36:26;19.70;99.90
24664;DHT22;12791;50.992;13.788;2023-09-19T08:38:53;19.60;99.90
24664;DHT22;12791;50.992;13.788;2023-09-19T08:41:29;19.60;99.90
24664;DHT22;12791;50.992;13.788;2023-09-19T08:43:59;19.60;99.90
24664;DHT22;12791;50.992;13.788;2023-09-19T08:46:37;19.70;99.90
24664;DHT22;12791;50.992;13.788;2023-09-19T08:49:15;19.70;99.90
24664;DHT22;12791;50.992;13.788;2023-09-19T08:51:45;19.70;99.90
24664;DHT22;12791;50.992;13.788;2023-09-19T08:54:20;19.60;99.90
24664;DHT22;12791;50.992;13.788;2023-09-19T08:56:56;19.70;99.90
24664;DHT22;12791;50.992;13.788;2023-09-19T08:59:30;19.70;99.90
24664;DHT22;12791;50.992;13.788;2023-09-19T09:02:02;19.60;99.90
24664;DHT22;12791;50.992;13.788;2023-09-19T09:04:30;19.70;99.90
24664;DHT22;12791;50.992;13.788;2023-09-19T09:06:57;19.70;99.90
24664;DHT22;12791;50.992;13.788;2023-09-19T09:09:24;19.70;99.90
24664;DHT22;12791;50.992;13.788;2023-09-19T09:11:51;19.70;99.90
24664;DHT22;12791;50.992;13.788;2023-09-19T09:14:25;19.80;99.90
24664;DHT22;12791;50.992;13.788;2023-09-19T09:16:52;19.90;99.90
24664;DHT22;12791;50.992;13.788;2023-09-19T09:19:23;19.90;99.90
24664;DHT22;12791;50.992;13.788;2023-09-19T09:21:50;20.00;99.90
24664;DHT22;12791;50.992;13.788;2023-09-19T09:24:35;20.00;99.90
24664;DHT22;12791;50.992;13.788;2023-09-19T09:27:06;20.00;99.90
24664;DHT22;12791;50.992;13.788;2023-09-19T09:29:42;20.00;99.90
24664;DHT22;12791;50.992;13.788;2023-09-19T09:32:19;20.10;99.90
24664;DHT22;12791;50.992;13.788;2023-09-19T09:34:51;20.10;99.90
24664;DHT22;12791;50.992;13.788;2023-09-19T09:37:18;20.10;99.90
24664;DHT22;12791;50.992;13.788;2023-09-19T09:39:50;20.10;99.90
24664;DHT22;12791;50.992;13.788;2023-09-19T09:42:30;20.20;99.90
24664;DHT22;12791;50.992;13.788;2023-09-19T09:45:17;20.20;99.90
24664;DHT22;12791;50.992;13.788;2023-09-19T09:47:45;20.10;99.90
24664;DHT22;12791;50.992;13.788;2023-09-19T09:50:28;20.10;99.90
24664;DHT22;12791;50.992;13.788;2023-09-19T09:53:23;20.10;99.90
24664;DHT22;12791;50.992;13.788;2023-09-19T09:56:02;20.10;99.90
24664;DHT22;12791;50.992;13.788;2023-09-19T09:58:32;20.00;99.90
24664;DHT22;12791;50.992;13.788;2023-09-19T10:01:01;20.00;99.90
24664;DHT22;12791;50.992;13.788;2023-09-19T10:03:35;20.00;99.90
24664;DHT22;12791;50.992;13.788;2023-09-19T10:06:07;20.00;99.90
24664;DHT22;12791;50.992;13.788;2023-09-19T10:09:04;20.00;99.90
24664;DHT22;12791;50.992;13.788;2023-09-19T10:11:41;20.00;99.90
24664;DHT22;12791;50.992;13.788;2023-09-19T10:14:10;20.00;99.90
24664;DHT22;12791;50.992;13.788;2023-09-19T10:16:40;20.00;99.90
24664;DHT22;12791;50.992;13.788;2023-09-19T10:19:15;20.10;99.90
24664;DHT22;12791;50.992;13.788;2023-09-19T10:21:44;20.20;99.90
24664;DHT22;12791;50.992;13.788;2023-09-19T10:24:13;20.20;99.90
24664;DHT22;12791;50.992;13.788;2023-09-19T10:26:42;20.30;99.90
24664;DHT22;12791;50.992;13.788;2023-09-19T10:29:12;20.40;99.90
24664;DHT22;12791;50.992;13.788;2023-09-19T10:31:42;20.40;99.90
24664;DHT22;12791;50.992;13.788;2023-09-19T10:34:14;20.50;99.90
24664;DHT22;12791;50.992;13.788;2023-09-19T10:36:45;20.50;99.90
24664;DHT22;12791;50.992;13.788;2023-09-19T10:39:15;20.50;99.90
24664;DHT22;12791;50.992;13.788;2023-09-19T10:41:50;20.50;99.90
24664;DHT22;12791;50.992;13.788;2023-09-19T10:44:23;20.50;99.90
24664;DHT22;12791;50.992;13.788;2023-09-19T10:46:51;20.40;99.90
24664;DHT22;12791;50.992;13.788;2023-09-19T10:49:19;20.40;99.90
24664;DHT22;12791;50.992;13.788;2023-09-19T10:51:50;20.40;99.90
24664;DHT22;12791;50.992;13.788;2023-09-19T10:54:23;20.40;99.90
24664;DHT22;12791;50.992;13.788;2023-09-19T10:56:53;20.40;99.90
24664;DHT22;12791;50.992;13.788;2023-09-19T10:59:24;20.40;99.90
24664;DHT22;12791;50.992;13.788;2023-09-19T11:02:00;20.40;99.90
24664;DHT22;12791;50.992;13.788;2023-09-19T11:04:42;20.40;99.90
24664;DHT22;12791;50.992;13.788;2023-09-19T11:07:15;20.40;99.90
24664;DHT22;12791;50.992;13.788;2023-09-19T11:09:46;20.40;99.90
24664;DHT22;12791;50.992;13.788;2023-09-19T11:21:50;20.40;99.90
24664;DHT22;12791;50.992;13.788;2023-09-19T11:24:31;20.50;99.90
24664;DHT22;12791;50.992;13.788;2023-09-19T11:27:14;20.60;99.90
24664;DHT22;12791;50.992;13.788;2023-09-19T11:29:43;20.70;99.90
24664;DHT22;12791;50.992;13.788;2023-09-19T11:32:10;20.80;98.50
24664;DHT22;12791;50.992;13.788;2023-09-19T11:34:42;20.90;96.40
24664;DHT22;12791;50.992;13.788;2023-09-19T11:40:35;21.00;92.10
24664;DHT22;12791;50.992;13.788;2023-09-19T11:43:27;21.00;90.30
24664;DHT22;12791;50.992;13.788;2023-09-19T11:46:06;21.10;84.50
24664;DHT22;12791;50.992;13.788;2023-09-19T11:48:34;21.10;76.20
24664;DHT22;12791;50.992;13.788;2023-09-19T11:51:13;21.10;74.10
24664;DHT22;12791;50.992;13.788;2023-09-19T11:53:50;21.10;73.40
24664;DHT22;12791;50.992;13.788;2023-09-19T11:56:19;21.10;71.60
24664;DHT22;12791;50.992;13.788;2023-09-19T11:58:49;21.10;70.40
24664;DHT22;12791;50.992;13.788;2023-09-19T12:01:51;21.20;70.20
24664;DHT22;12791;50.992;13.788;2023-09-19T12:04:33;21.20;69.50
24664;DHT22;12791;50.992;13.788;2023-09-19T12:07:00;21.20;68.30
24664;DHT22;12791;50.992;13.788;2023-09-19T12:09:28;21.30;67.90
24664;DHT22;12791;50.992;13.788;2023-09-19T12:11:56;21.40;66.80
24664;DHT22;12791;50.992;13.788;2023-09-19T12:14:26;21.40;65.00
24664;DHT22;12791;50.992;13.788;2023-09-19T12:16:54;21.40;65.00
24664;DHT22;12791;50.992;13.788;2023-09-19T12:19:23;21.50;63.90
24664;DHT22;12791;50.992;13.788;2023-09-19T12:22:00;21.50;64.80
24664;DHT22;12791;50.992;13.788;2023-09-19T12:24:31;21.50;65.40
24664;DHT22;12791;50.992;13.788;2023-09-19T12:27:03;21.50;65.60
24664;DHT22;12791;50.992;13.788;2023-09-19T12:29:42;21.50;65.50
24664;DHT22;12791;50.992;13.788;2023-09-19T12:32:09;21.50;64.90
24664;DHT22;12791;50.992;13.788;2023-09-19T12:34:36;21.50;64.50
24664;DHT22;12791;50.992;13.788;2023-09-19T12:37:09;21.50;64.60
24664;DHT22;12791;50.992;13.788;2023-09-19T12:39:43;21.40;66.30
24664;DHT22;12791;50.992;13.788;2023-09-19T12:42:17;21.40;67.50
24664;DHT22;12791;50.992;13.788;2023-09-19T12:44:45;21.40;67.90
24664;DHT22;12791;50.992;13.788;2023-09-19T12:47:14;21.40;67.90
24664;DHT22;12791;50.992;13.788;2023-09-19T12:50:08;21.50;66.90
24664;DHT22;12791;50.992;13.788;2023-09-19T12:52:43;21.40;66.20
24664;DHT22;12791;50.992;13.788;2023-09-19T12:55:26;21.40;66.10
24664;DHT22;12791;50.992;13.788;2023-09-19T12:58:07;21.40;66.60
24664;DHT22;12791;50.992;13.788;2023-09-19T13:00:36;21.40;66.20
24664;DHT22;12791;50.992;13.788;2023-09-19T13:03:17;21.40;65.80
24664;DHT22;12791;50.992;13.788;2023-09-19T13:05:49;21.50;66.60
24664;DHT22;12791;50.992;13.788;2023-09-19T13:08:18;21.50;66.20
24664;DHT22;12791;50.992;13.788;2023-09-19T13:11:02;21.50;64.90
24664;DHT22;12791;50.992;13.788;2023-09-19T13:13:33;21.50;64.40
24664;DHT22;12791;50.992;13.788;2023-09-19T13:16:02;21.50;64.50
24664;DHT22;12791;50.992;13.788;2023-09-19T13:18:30;21.50;64.60
24664;DHT22;12791;50.992;13.788;2023-09-19T13:21:08;21.50;64.50
24664;DHT22;12791;50.992;13.788;2023-09-19T13:23:41;21.60;62.60
24664;DHT22;12791;50.992;13.788;2023-09-19T13:26:09;21.60;61.80
24664;DHT22;12791;50.992;13.788;2023-09-19T13:28:38;21.60;60.90
24664;DHT22;12791;50.992;13.788;2023-09-19T13:31:04;21.60;62.00
24664;DHT22;12791;50.992;13.788;2023-09-19T13:33:33;21.60;62.00
24664;DHT22;12791;50.992;13.788;2023-09-19T13:36:01;21.70;61.30
24664;DHT22;12791;50.992;13.788;2023-09-19T13:38:27;21.70;61.10
24664;DHT22;12791;50.992;13.788;2023-09-19T13:40:54;21.70;60.10
24664;DHT22;12791;50.992;13.788;2023-09-19T13:43:21;21.70;59.10
24664;DHT22;12791;50.992;13.788;2023-09-19T13:45:49;21.70;58.90
24664;DHT22;12791;50.992;13.788;2023-09-19T13:48:16;21.70;58.80
24664;DHT22;12791;50.992;13.788;2023-09-19T13:50:45;21.70;58.30
24664;DHT22;12791;50.992;13.788;2023-09-19T13:53:12;21.70;58.00
24664;DHT22;12791;50.992;13.788;2023-09-19T13:55:39;21.70;58.00
24664;DHT22;12791;50.992;13.788;2023-09-19T13:58:06;21.80;58.50
24664;DHT22;12791;50.992;13.788;2023-09-19T14:00:36;21.70;58.10
24664;DHT22;12791;50.992;13.788;2023-09-19T14:03:05;21.80;57.40
24664;DHT22;12791;50.992;13.788;2023-09-19T14:05:32;21.70;56.20
24664;DHT22;12791;50.992;13.788;2023-09-19T14:07:58;21.70;54.90
24664;DHT22;12791;50.992;13.788;2023-09-19T14:10:25;21.70;54.00
24664;DHT22;12791;50.992;13.788;2023-09-19T14:12:53;21.80;54.10
24664;DHT22;12791;50.992;13.788;2023-09-19T14:15:20;21.80;54.20
24664;DHT22;12791;50.992;13.788;2023-09-19T14:17:54;21.80;54.30
24664;DHT22;12791;50.992;13.788;2023-09-19T14:20:22;21.80;54.20
24664;DHT22;12791;50.992;13.788;2023-09-19T14:22:49;21.90;54.20
24664;DHT22;12791;50.992;13.788;2023-09-19T14:25:16;21.90;53.90
24664;DHT22;12791;50.992;13.788;2023-09-19T14:27:43;21.90;53.60
24664;DHT22;12791;50.992;13.788;2023-09-19T14:30:10;22.00;53.30
24664;DHT22;12791;50.992;13.788;2023-09-19T14:32:37;22.00;51.50
24664;DHT22;12791;50.992;13.788;2023-09-19T14:35:05;22.00;51.30
24664;DHT22;12791;50.992;13.788;2023-09-19T14:37:33;22.10;50.80
24664;DHT22;12791;50.992;13.788;2023-09-19T14:40:00;22.10;50.40
24664;DHT22;12791;50.992;13.788;2023-09-19T14:42:33;22.20;50.30
24664;DHT22;12791;50.992;13.788;2023-09-19T14:45:01;22.20;48.70
24664;DHT22;12791;50.992;13.788;2023-09-19T14:47:28;22.20;48.10
24664;DHT22;12791;50.992;13.788;2023-09-19T14:49:54;22.20;48.50
24664;DHT22;12791;50.992;13.788;2023-09-19T14:52:21;22.20;47.40
24664;DHT22;12791;50.992;13.788;2023-09-19T14:54:50;22.20;47.40
24664;DHT22;12791;50.992;13.788;2023-09-19T14:57:17;22.20;47.80
24664;DHT22;12791;50.992;13.788;2023-09-19T14:59:44;22.30;48.20
24664;DHT22;12791;50.992;13.788;2023-09-19T15:02:11;22.30;48.00
24664;DHT22;12791;50.992;13.788;2023-09-19T15:04:39;22.40;47.60
24664;DHT22;12791;50.992;13.788;2023-09-19T15:07:06;22.40;46.40
24664;DHT22;12791;50.992;13.788;2023-09-19T15:09:32;22.40;46.00
24664;DHT22;12791;50.992;13.788;2023-09-19T15:12:00;22.40;46.00
24664;DHT22;12791;50.992;13.788;2023-09-19T15:14:27;22.50;45.80
24664;DHT22;12791;50.992;13.788;2023-09-19T15:16:55;22.40;45.70
24664;DHT22;12791;50.992;13.788;2023-09-19T15:19:21;22.40;46.00
24664;DHT22;12791;50.992;13.788;2023-09-19T15:21:48;22.40;46.40
24664;DHT22;12791;50.992;13.788;2023-09-19T15:24:15;22.40;45.80
24664;DHT22;12791;50.992;13.788;2023-09-19T15:26:42;22.40;46.00
24664;DHT22;12791;50.992;13.788;2023-09-19T15:29:11;22.30;46.10
24664;DHT22;12791;50.992;13.788;2023-09-19T15:31:38;22.30;46.30
24664;DHT22;12791;50.992;13.788;2023-09-19T15:34:05;22.20;46.60
24664;DHT22;12791;50.992;13.788;2023-09-19T15:36:32;22.20;47.40
24664;DHT22;12791;50.992;13.788;2023-09-19T15:39:00;21.90;47.10
24664;DHT22;12791;50.992;13.788;2023-09-19T15:41:29;22.10;47.30
24664;DHT22;12791;50.992;13.788;2023-09-19T15:43:57;22.10;47.30
24664;DHT22;12791;50.992;13.788;2023-09-19T15:46:28;22.00;47.60
24664;DHT22;12791;50.992;13.788;2023-09-19T15:48:56;22.00;48.10